createdAt,value
2022-09-20T00:01:49.988Z,100.00
2022-09-20T00:04:18.932Z,100.00
2022-09-20T00:06:47.897Z,100.00
2022-09-20T00:09:16.893Z,100.00
2022-09-20T00:11:46.157Z,100.00
2022-09-20T00:14:15.198Z,100.00
2022-09-20T00:16:45.582Z,100.00
2022-09-20T00:19:21.159Z,100.00
2022-09-20T00:21:50.135Z,100.00
2022-09-20T00:24:19.312Z,100.00
2022-09-20T00:26:48.316Z,100.00
2022-09-20T00:29:17.260Z,100.00
2022-09-20T00:31:47.843Z,100.00
2022-09-20T00:34:34.350Z,100.00
2022-09-20T00:37:03.405Z,100.00
2022-09-20T00:39:32.411Z,100.00
2022-09-20T00:42:01.365Z,100.00
2022-09-20T00:45:00.662Z,100.00
2022-09-20T00:47:41.270Z,100.00
2022-09-20T00:50:33.214Z,100.00
2022-09-20T00:53:08.287Z,100.00
2022-09-20T00:55:42.298Z,100.00
2022-09-20T00:58:11.400Z,100.00
2022-09-20T01:00:41.256Z,100.00
2022-09-20T01:03:12.515Z,100.00
2022-09-20T01:05:42.512Z,100.00
2022-09-20T01:08:12.670Z,100.00
2022-09-20T01:10:42.621Z,100.00
2022-09-20T01:13:11.843Z,100.00
2022-09-20T01:15:41.705Z,100.00
2022-09-20T01:18:12.670Z,100.00
2022-09-20T01:20:44.615Z,100.00
2022-09-20T01:23:48.140Z,100.00
2022-09-20T01:27:00.165Z,100.00
2022-09-20T01:29:48.886Z,100.00
2022-09-20T01:32:26.768Z,100.00
2022-09-20T01:35:01.289Z,100.00
2022-09-20T01:37:40.287Z,100.00
2022-09-20T01:40:18.451Z,100.00
2022-09-20T01:42:56.812Z,100.00
2022-09-20T01:45:31.261Z,100.00
2022-09-20T01:48:10.940Z,100.00
2022-09-20T01:51:04.219Z,100.00
2022-09-20T01:54:11.253Z,100.00
2022-09-20T01:57:27.453Z,100.00
2022-09-20T02:00:13.221Z,100.00
2022-09-20T02:03:41.842Z,100.00
2022-09-20T02:06:40.372Z,100.00
2022-09-20T02:09:35.828Z,100.00
2022-09-20T02:12:35.298Z,100.00
2022-09-20T02:15:17.460Z,100.00
2022-09-20T02:18:02.479Z,100.00
2022-09-20T02:20:50.069Z,100.00
2022-09-20T02:23:36.217Z,100.00
2022-09-20T02:26:24.642Z,100.00
2022-09-20T02:29:02.513Z,100.00
2022-09-20T02:32:01.683Z,100.00
2022-09-20T02:34:52.086Z,100.00
2022-09-20T02:37:58.806Z,100.00
2022-09-20T02:41:16.144Z,100.00
2022-09-20T02:43:55.268Z,100.00
2022-09-20T02:46:32.516Z,100.00
2022-09-20T02:49:09.642Z,100.00
2022-09-20T02:51:43.317Z,100.00
2022-09-20T02:54:29.953Z,100.00
2022-09-20T02:57:08.260Z,100.00
2022-09-20T02:59:46.516Z,100.00
2022-09-20T03:02:26.904Z,100.00
2022-09-20T03:05:14.470Z,100.00
2022-09-20T03:08:03.284Z,100.00
2022-09-20T03:10:43.599Z,100.00
2022-09-20T03:13:24.641Z,100.00
2022-09-20T03:16:08.757Z,100.00
2022-09-20T03:18:50.178Z,100.00
2022-09-20T03:21:38.852Z,100.00
2022-09-20T03:24:21.260Z,100.00
2022-09-20T03:26:59.397Z,100.00
2022-09-20T03:29:44.921Z,100.00
2022-09-20T03:32:32.793Z,100.00
2022-09-20T03:35:21.107Z,100.00
2022-09-20T03:38:12.731Z,100.00
2022-09-20T03:41:20.218Z,100.00
2022-09-20T03:44:09.068Z,100.00
2022-09-20T03:46:46.265Z,100.00
2022-09-20T03:49:54.897Z,100.00
2022-09-20T03:52:47.416Z,100.00
2022-09-20T03:55:47.778Z,100.00
2022-09-20T03:58:36.001Z,100.00
2022-09-20T04:01:31.014Z,100.00
2022-09-20T04:04:12.896Z,100.00
2022-09-20T04:07:14.597Z,100.00
2022-09-20T04:10:24.311Z,100.00
2022-09-20T04:13:18.179Z,100.00
2022-09-20T04:16:03.940Z,100.00
2022-09-20T04:18:39.603Z,100.00
2022-09-20T04:21:17.468Z,100.00
2022-09-20T04:23:54.975Z,100.00
2022-09-20T04:26:29.444Z,100.00
2022-09-20T04:29:14.394Z,100.00
2022-09-20T04:31:54.070Z,100.00
2022-09-20T04:34:46.579Z,100.00
2022-09-20T04:37:29.757Z,100.00
2022-09-20T04:40:15.117Z,100.00
2022-09-20T04:43:33.331Z,100.00
2022-09-20T04:46:39.030Z,100.00
2022-09-20T04:50:05.628Z,100.00
2022-09-20T04:53:08.799Z,100.00
2022-09-20T04:55:57.635Z,100.00
2022-09-20T04:58:50.668Z,100.00
2022-09-20T05:02:25.945Z,100.00
2022-09-20T05:05:51.441Z,100.00
2022-09-20T05:09:02.247Z,100.00
2022-09-20T05:12:02.542Z,100.00
2022-09-20T05:15:01.579Z,100.00
2022-09-20T05:17:46.011Z,100.00
2022-09-20T05:20:44.572Z,100.00
2022-09-20T05:23:41.127Z,100.00
2022-09-20T05:26:21.488Z,100.00
2022-09-20T05:29:00.060Z,100.00
2022-09-20T05:31:40.414Z,100.00
2022-09-20T05:34:21.642Z,100.00
2022-09-20T05:36:59.965Z,100.00
2022-09-20T05:39:44.283Z,100.00
2022-09-20T05:42:24.127Z,100.00
2022-09-20T05:45:05.510Z,100.00
2022-09-20T05:47:46.302Z,100.00
2022-09-20T05:50:46.246Z,100.00
2022-09-20T05:54:06.316Z,100.00
2022-09-20T05:56:46.749Z,100.00
2022-09-20T05:59:31.688Z,100.00
2022-09-20T06:02:22.086Z,100.00
2022-09-20T06:05:03.485Z,100.00
2022-09-20T06:07:51.757Z,100.00
2022-09-20T06:10:47.300Z,100.00
2022-09-20T06:13:51.039Z,100.00
2022-09-20T06:16:30.947Z,100.00
2022-09-20T06:19:12.808Z,100.00
2022-09-20T06:21:49.552Z,100.00
2022-09-20T06:24:36.637Z,100.00
2022-09-20T06:27:15.022Z,100.00
2022-09-20T06:29:54.112Z,100.00
2022-09-20T06:32:23.058Z,100.00
2022-09-20T06:34:53.115Z,100.00
2022-09-20T06:38:02.747Z,100.00
2022-09-20T06:40:58.083Z,100.00
2022-09-20T06:43:30.992Z,100.00
2022-09-20T06:46:00.251Z,100.00
2022-09-20T06:48:31.562Z,100.00
2022-09-20T06:51:02.088Z,100.00
2022-09-20T06:53:33.664Z,100.00
2022-09-20T06:56:04.368Z,100.00
2022-09-20T06:58:37.480Z,100.00
2022-09-20T07:01:06.928Z,100.00
2022-09-20T07:03:35.915Z,100.00
2022-09-20T07:06:05.364Z,100.00
2022-09-20T07:08:34.635Z,100.00
2022-09-20T07:11:09.746Z,100.00
2022-09-20T07:13:40.131Z,100.00
2022-09-20T07:16:11.914Z,100.00
2022-09-20T07:18:42.058Z,100.00
2022-09-20T07:21:13.245Z,100.00
2022-09-20T07:23:42.338Z,100.00
2022-09-20T07:26:21.173Z,100.00
2022-09-20T07:28:52.070Z,100.00
2022-09-20T07:31:25.249Z,100.00
2022-09-20T07:33:54.545Z,100.00
2022-09-20T07:36:24.733Z,100.00
2022-09-20T07:38:54.558Z,100.00
2022-09-20T07:41:24.017Z,100.00
2022-09-20T07:43:54.483Z,100.00
2022-09-20T07:46:24.243Z,100.00
2022-09-20T07:48:53.365Z,100.00
2022-09-20T07:51:22.389Z,100.00
2022-09-20T07:53:56.144Z,100.00
2022-09-20T07:56:25.134Z,100.00
2022-09-20T07:58:55.589Z,100.00
2022-09-20T08:01:24.646Z,100.00
2022-09-20T08:03:54.125Z,98.00
2022-09-20T08:06:23.127Z,94.80
2022-09-20T08:08:52.410Z,90.89
2022-09-20T08:11:28.712Z,83.37
2022-09-20T08:14:06.141Z,84.69
2022-09-20T08:16:41.353Z,86.33
2022-09-20T08:19:15.257Z,84.58
2022-09-20T08:21:44.538Z,83.83
2022-09-20T08:24:13.880Z,82.91
2022-09-20T08:26:43.646Z,85.68
2022-09-20T08:29:15.337Z,85.13
2022-09-20T08:31:44.835Z,80.70
2022-09-20T08:34:16.104Z,80.59
2022-09-20T08:36:50.159Z,81.96
2022-09-20T08:42:25.282Z,82.85
2022-09-20T08:45:00.722Z,80.01
2022-09-20T08:47:32.500Z,81.78
2022-09-20T08:50:17.238Z,79.83
2022-09-20T08:52:49.683Z,79.17
2022-09-20T08:55:22.539Z,77.57
2022-09-20T08:57:55.054Z,79.93
2022-09-20T09:00:29.885Z,79.45
2022-09-20T09:03:05.499Z,80.21
2022-09-20T09:05:37.985Z,79.41
2022-09-20T09:08:16.476Z,78.26
2022-09-20T09:10:50.628Z,76.90
2022-09-20T09:13:26.328Z,76.82
2022-09-20T09:16:01.271Z,76.05
2022-09-20T09:18:36.442Z,76.07
2022-09-20T09:21:07.739Z,76.83
2022-09-20T09:23:44.212Z,76.91
2022-09-20T09:26:21.312Z,76.40
2022-09-20T09:29:11.461Z,76.84
2022-09-20T09:31:42.137Z,77.80
2022-09-20T09:34:26.368Z,73.61
2022-09-20T09:36:56.427Z,74.09
2022-09-20T09:39:29.076Z,71.81
2022-09-20T09:42:01.101Z,69.46
2022-09-20T09:44:33.868Z,66.06
2022-09-20T09:47:04.354Z,66.56
2022-09-20T09:49:36.366Z,64.90
2022-09-20T09:52:14.415Z,66.03
2022-09-20T09:54:50.290Z,65.44
2022-09-20T09:57:35.704Z,65.86
2022-09-20T10:00:19.355Z,64.96
2022-09-20T10:03:36.328Z,65.52
2022-09-20T10:06:18.328Z,66.68
2022-09-20T10:09:04.231Z,64.12
2022-09-20T10:11:51.666Z,64.42
2022-09-20T10:14:39.250Z,64.49
2022-09-20T10:17:40.093Z,63.91
2022-09-20T10:20:42.830Z,65.40
2022-09-20T10:26:33.154Z,63.33
2022-09-20T10:29:16.375Z,65.27
2022-09-20T10:32:01.687Z,66.07
2022-09-20T10:35:10.752Z,65.88
2022-09-20T10:38:02.593Z,67.89
2022-09-20T10:40:55.691Z,66.07
2022-09-20T10:43:45.407Z,65.03
2022-09-20T10:46:32.380Z,68.24
2022-09-20T10:49:23.955Z,64.34
2022-09-20T10:52:15.938Z,63.61
2022-09-20T10:55:14.751Z,61.61
2022-09-20T10:58:24.616Z,65.05
2022-09-20T11:01:04.149Z,59.64
2022-09-20T11:03:54.230Z,60.41
2022-09-20T11:06:34.179Z,63.68
2022-09-20T11:09:05.012Z,58.45
2022-09-20T11:11:41.141Z,56.17
2022-09-20T11:14:17.119Z,52.83
2022-09-20T11:16:52.113Z,51.79
2022-09-20T11:19:34.010Z,51.68
2022-09-20T11:22:09.977Z,52.41
2022-09-20T11:24:46.391Z,54.08
2022-09-20T11:27:22.390Z,53.93
2022-09-20T11:29:57.096Z,53.91
2022-09-20T11:32:33.037Z,57.49
2022-09-20T11:35:14.746Z,53.06
2022-09-20T11:37:52.522Z,54.69
2022-09-20T11:40:28.891Z,56.10
2022-09-20T11:43:03.908Z,58.06
2022-09-20T11:45:34.686Z,60.32
2022-09-20T11:48:11.372Z,71.96
2022-09-20T11:51:05.797Z,76.89
2022-09-20T11:53:58.462Z,86.56
2022-09-20T11:56:29.401Z,91.28
2022-09-20T11:59:03.858Z,95.38
2022-09-20T12:01:38.572Z,100.00
2022-09-20T12:04:31.825Z,94.35
2022-09-20T12:07:10.531Z,94.85
2022-09-20T12:09:44.405Z,100.00
2022-09-20T12:12:20.204Z,100.00
2022-09-20T12:15:01.542Z,100.00
2022-09-20T12:18:33.782Z,100.00
2022-09-20T12:21:16.607Z,100.00
2022-09-20T12:24:19.040Z,100.00
2022-09-20T12:26:51.366Z,94.93
2022-09-20T12:30:08.129Z,92.94
2022-09-20T12:32:57.610Z,86.90
2022-09-20T12:36:18.859Z,85.06
2022-09-20T12:39:03.358Z,71.74
2022-09-20T12:41:49.340Z,59.61
2022-09-20T12:44:40.790Z,50.38
2022-09-20T12:47:22.226Z,56.59
2022-09-20T12:50:11.007Z,58.10
2022-09-20T12:52:53.894Z,65.98
2022-09-20T12:55:55.365Z,65.34
2022-09-20T12:58:38.420Z,60.62
2022-09-20T13:01:32.940Z,63.78
2022-09-20T13:04:55.346Z,66.86
2022-09-20T13:07:53.297Z,68.53
2022-09-20T13:10:30.194Z,67.58
2022-09-20T13:13:17.353Z,68.46
2022-09-20T13:15:53.547Z,69.97
2022-09-20T13:18:25.480Z,66.88
2022-09-20T13:20:56.994Z,69.21
2022-09-20T13:23:34.356Z,67.26
2022-09-20T13:26:12.829Z,65.84
2022-09-20T13:28:59.220Z,69.51
2022-09-20T13:31:38.073Z,69.03
2022-09-20T13:34:23.038Z,67.44
2022-09-20T13:36:59.466Z,64.79
2022-09-20T13:39:43.560Z,68.78
2022-09-20T13:42:23.005Z,64.42
2022-09-20T13:45:00.342Z,67.11
2022-09-20T13:47:30.326Z,67.74
2022-09-20T13:50:03.577Z,66.52
2022-09-20T13:52:34.022Z,66.61
2022-09-20T13:55:29.714Z,66.75
2022-09-20T13:58:27.338Z,63.77
2022-09-20T14:01:09.822Z,66.03
2022-09-20T14:03:39.062Z,63.87
2022-09-20T14:06:16.052Z,61.73
2022-09-20T14:08:52.638Z,59.97
2022-09-20T14:11:34.576Z,57.37
2022-09-20T14:14:12.426Z,57.91
2022-09-20T14:16:53.039Z,55.90
2022-09-20T14:19:34.387Z,48.45
2022-09-20T14:22:06.691Z,40.96
2022-09-20T14:24:39.843Z,33.27
2022-09-20T14:27:21.763Z,29.16
2022-09-20T14:29:57.355Z,28.10
2022-09-20T14:32:46.515Z,24.97
2022-09-20T14:35:29.063Z,23.42
2022-09-20T14:38:10.318Z,22.08
2022-09-20T14:40:47.924Z,21.93
2022-09-20T14:43:32.534Z,21.12
2022-09-20T14:46:25.593Z,24.28
2022-09-20T14:48:54.828Z,27.95
2022-09-20T14:51:30.285Z,32.33
2022-09-20T14:54:33.745Z,39.26
2022-09-20T14:57:11.897Z,41.74
2022-09-20T14:59:52.310Z,46.17
2022-09-20T15:02:22.488Z,57.70
2022-09-20T15:04:57.210Z,56.27
2022-09-20T15:07:35.671Z,58.63
2022-09-20T15:10:05.557Z,59.58
2022-09-20T15:12:34.896Z,61.63
2022-09-20T15:15:07.183Z,61.63
2022-09-20T15:17:36.277Z,65.26
2022-09-20T15:20:06.651Z,63.02
2022-09-20T15:22:35.985Z,62.23
2022-09-20T15:25:06.534Z,64.10
2022-09-20T15:27:35.584Z,63.00
2022-09-20T15:30:07.719Z,61.79
2022-09-20T15:32:37.970Z,62.32
2022-09-20T15:35:14.130Z,59.38
2022-09-20T15:37:43.381Z,53.29
2022-09-20T15:40:13.831Z,49.17
2022-09-20T15:42:43.385Z,52.17
2022-09-20T15:45:14.984Z,57.82
2022-09-20T15:47:44.354Z,62.33
2022-09-20T15:50:13.683Z,63.48
2022-09-20T15:52:43.133Z,65.57
2022-09-20T15:55:13.534Z,67.54
2022-09-20T15:57:42.640Z,67.35
2022-09-20T16:00:14.715Z,68.13
2022-09-20T16:02:44.599Z,65.88
2022-09-20T16:05:13.760Z,68.08
2022-09-20T16:07:42.855Z,66.06
2022-09-20T16:10:13.166Z,67.85
2022-09-20T16:12:42.365Z,69.25
2022-09-20T16:15:14.515Z,69.94
2022-09-20T16:18:01.317Z,67.68
2022-09-20T16:20:30.418Z,67.86
2022-09-20T16:22:59.565Z,67.91
2022-09-20T16:25:28.765Z,68.08
2022-09-20T16:27:59.098Z,68.89
2022-09-20T16:30:30.883Z,67.92
2022-09-20T16:33:05.458Z,68.61
2022-09-20T16:35:34.718Z,67.50
2022-09-20T16:38:03.923Z,65.56
2022-09-20T16:40:35.166Z,64.25
2022-09-20T16:43:04.471Z,64.19
2022-09-20T16:45:36.205Z,66.60
2022-09-20T16:48:08.561Z,65.44
2022-09-20T16:50:40.049Z,69.36
2022-09-20T16:53:09.221Z,70.16
2022-09-20T16:55:38.723Z,73.15
2022-09-20T16:58:09.377Z,69.90
2022-09-20T17:00:41.365Z,65.81
2022-09-20T17:03:12.411Z,62.26
2022-09-20T17:05:42.427Z,66.53
2022-09-20T17:08:12.824Z,67.10
2022-09-20T17:10:42.229Z,71.25
2022-09-20T17:13:12.582Z,72.49
2022-09-20T17:15:44.790Z,70.49
2022-09-20T17:18:15.812Z,69.13
2022-09-20T17:20:45.141Z,70.53
2022-09-20T17:23:14.743Z,70.02
2022-09-20T17:25:46.310Z,72.04
2022-09-20T17:28:15.684Z,75.06
2022-09-20T17:30:46.152Z,75.20
2022-09-20T17:33:15.577Z,72.99
2022-09-20T17:35:52.515Z,71.41
2022-09-20T17:38:22.289Z,71.96
2022-09-20T17:41:01.842Z,72.30
2022-09-20T17:43:32.498Z,72.66
2022-09-20T17:46:14.560Z,72.40
2022-09-20T17:48:49.121Z,72.98
2022-09-20T17:51:20.685Z,72.08
2022-09-20T17:53:50.920Z,70.77
2022-09-20T17:56:23.429Z,71.25
2022-09-20T17:58:53.020Z,71.15
2022-09-20T18:01:26.009Z,71.77
2022-09-20T18:03:57.700Z,73.18
2022-09-20T18:06:31.623Z,71.74
2022-09-20T18:09:05.240Z,72.09
2022-09-20T18:11:40.464Z,72.31
2022-09-20T18:14:13.846Z,73.54
2022-09-20T18:16:45.769Z,76.33
2022-09-20T18:19:16.283Z,77.64
2022-09-20T18:21:46.014Z,78.74
2022-09-20T18:24:15.174Z,79.24
2022-09-20T18:26:44.701Z,79.68
2022-09-20T18:29:18.031Z,80.44
2022-09-20T18:31:52.192Z,78.25
2022-09-20T18:34:23.560Z,81.95
2022-09-20T18:36:55.548Z,82.54
2022-09-20T18:39:26.721Z,80.42
2022-09-20T18:41:57.384Z,81.12
2022-09-20T18:44:27.658Z,86.11
2022-09-20T18:46:58.651Z,88.77
2022-09-20T18:49:29.202Z,93.67
2022-09-20T18:51:59.231Z,92.19
2022-09-20T18:54:30.956Z,91.32
2022-09-20T18:57:01.435Z,92.35
2022-09-20T18:59:31.245Z,94.34
2022-09-20T19:02:35.721Z,95.56
2022-09-20T19:05:28.328Z,93.31
2022-09-20T19:08:17.315Z,87.34
2022-09-20T19:10:53.284Z,86.87
2022-09-20T19:13:39.453Z,85.77
2022-09-20T19:16:20.747Z,84.36
2022-09-20T19:19:20.245Z,83.19
2022-09-20T19:21:59.996Z,82.44
2022-09-20T19:25:06.802Z,84.25
2022-09-20T19:27:36.877Z,86.40
2022-09-20T19:30:08.674Z,86.42
2022-09-20T19:32:38.790Z,87.33
2022-09-20T19:35:20.201Z,88.89
2022-09-20T19:38:04.484Z,89.97
2022-09-20T19:40:46.477Z,91.00
2022-09-20T19:43:52.746Z,96.97
2022-09-20T19:46:41.595Z,98.72
2022-09-20T19:49:16.443Z,100.00
2022-09-20T19:51:47.518Z,100.00
2022-09-20T19:54:18.851Z,100.00
2022-09-20T19:57:01.842Z,100.00
2022-09-20T19:59:32.017Z,100.00
2022-09-20T20:02:02.332Z,100.00
2022-09-20T20:04:32.356Z,100.00
2022-09-20T20:07:15.539Z,100.00
2022-09-20T20:09:53.372Z,100.00
2022-09-20T20:12:31.021Z,100.00
2022-09-20T20:15:16.219Z,100.00
2022-09-20T20:17:59.049Z,100.00
2022-09-20T20:20:35.962Z,100.00
2022-09-20T20:23:49.783Z,100.00
2022-09-20T20:26:23.517Z,100.00
2022-09-20T20:28:54.985Z,100.00
2022-09-20T20:31:24.566Z,100.00
2022-09-20T20:33:55.007Z,100.00
2022-09-20T20:36:24.207Z,98.01
2022-09-20T20:39:28.970Z,95.79
2022-09-20T20:42:01.913Z,98.92
2022-09-20T20:44:32.238Z,100.00
2022-09-20T20:47:01.845Z,100.00
2022-09-20T20:49:34.268Z,100.00
2022-09-20T20:52:05.302Z,100.00
2022-09-20T20:54:36.323Z,100.00
2022-09-20T20:57:06.005Z,100.00
2022-09-20T20:59:35.350Z,100.00
2022-09-20T21:02:07.851Z,100.00
2022-09-20T21:04:37.299Z,100.00
2022-09-20T21:07:08.677Z,100.00
2022-09-20T21:09:39.829Z,100.00
2022-09-20T21:12:09.508Z,100.00
2022-09-20T21:14:41.114Z,100.00
2022-09-20T21:17:10.264Z,100.00
2022-09-20T21:19:39.811Z,100.00
2022-09-20T21:22:14.289Z,100.00
2022-09-20T21:24:45.549Z,100.00
2022-09-20T21:27:14.918Z,100.00
2022-09-20T21:29:44.233Z,100.00
2022-09-20T21:32:14.395Z,100.00
2022-09-20T21:35:11.779Z,100.00
2022-09-20T21:37:41.413Z,100.00
2022-09-20T21:40:12.866Z,100.00
2022-09-20T21:42:42.169Z,100.00
2022-09-20T21:45:11.797Z,100.00
2022-09-20T21:47:41.001Z,100.00
2022-09-20T21:50:10.846Z,100.00
2022-09-20T21:52:40.246Z,100.00
2022-09-20T21:55:11.487Z,100.00
2022-09-20T21:57:40.800Z,100.00
2022-09-20T22:00:38.980Z,100.00
2022-09-20T22:03:08.162Z,100.00
2022-09-20T22:05:37.645Z,100.00
2022-09-20T22:08:07.788Z,100.00
2022-09-20T22:10:38.301Z,100.00
2022-09-20T22:13:07.595Z,100.00
2022-09-20T22:15:36.731Z,100.00
2022-09-20T22:18:06.223Z,100.00
2022-09-20T22:20:35.374Z,100.00
2022-09-20T22:23:04.519Z,100.00
2022-09-20T22:25:34.478Z,100.00
2022-09-20T22:28:05.197Z,100.00
2022-09-20T22:30:34.808Z,100.00
2022-09-20T22:33:05.701Z,100.00
2022-09-20T22:35:35.008Z,100.00
2022-09-20T22:38:04.142Z,100.00
2022-09-20T22:40:33.324Z,100.00
2022-09-20T22:43:02.557Z,100.00
2022-09-20T22:45:33.333Z,100.00
2022-09-20T22:48:03.039Z,100.00
2022-09-20T22:50:32.100Z,100.00
2022-09-20T22:53:01.238Z,100.00
2022-09-20T22:55:30.367Z,100.00
2022-09-20T22:57:59.602Z,100.00
2022-09-20T23:00:28.906Z,100.00
2022-09-20T23:03:00.102Z,100.00
2022-09-20T23:05:29.524Z,100.00
2022-09-20T23:07:58.796Z,100.00
2022-09-20T23:10:27.967Z,100.00
2022-09-20T23:12:57.064Z,100.00
2022-09-20T23:15:26.275Z,100.00
2022-09-20T23:17:55.548Z,100.00
2022-09-20T23:20:26.261Z,100.00
2022-09-20T23:22:55.373Z,100.00
2022-09-20T23:25:24.560Z,100.00
2022-09-20T23:27:56.029Z,100.00
2022-09-20T23:30:25.458Z,100.00
2022-09-20T23:32:54.967Z,100.00
2022-09-20T23:35:25.650Z,100.00
2022-09-20T23:37:56.838Z,100.00
2022-09-20T23:40:26.049Z,100.00
2022-09-20T23:42:55.278Z,100.00
2022-09-20T23:45:24.559Z,100.00
2022-09-20T23:47:53.801Z,100.00
2022-09-20T23:50:23.042Z,100.00
2022-09-20T23:52:56.918Z,100.00
2022-09-20T23:55:26.233Z,100.00
2022-09-20T23:57:57.479Z,100.00
